Time;durP1;ratioP1;P1;durP2;ratioP2;P2;SDS_P1;SDS_P2;PMS_P1;PMS_P2;Temp;Humidity;BMP_temperature;BMP_pressure;BME280_temperature;BME280_humidity;BME280_pressure;Samples;Min_cycle;Max_cycle;Signal;HPM_P1;HPM_P2
2021/07/11 00:00:32;;;;;;;0.40;0.40;;;13.70;99.90;;;;;;2047786;28;20259;-71
2021/07/11 00:01:32;;;;;;;0.60;0.60;;;13.70;99.90;;;;;;2048518;28;20183;-71
2021/07/11 00:02:33;;;;;;;0.50;0.50;;;13.70;99.90;;;;;;2048564;28;20738;-71
2021/07/11 00:03:34;;;;;;;0.50;0.50;;;13.70;99.90;;;;;;2049138;29;20176;-72
2021/07/11 00:04:34;;;;;;;2.70;0.60;;;13.70;99.90;;;;;;2049195;29;20176;-72
2021/07/11 00:05:35;;;;;;;0.67;0.67;;;13.70;99.90;;;;;;2049005;29;20207;-72
2021/07/11 00:06:37;;;;;;;0.90;0.90;;;13.70;99.90;;;;;;2048963;29;20184;-72
2021/07/11 00:07:38;;;;;;;0.55;0.55;;;13.60;99.90;;;;;;2049060;29;20824;-71
2021/07/11 00:08:38;;;;;;;0.33;0.33;;;13.60;99.90;;;;;;2048876;29;20195;-71
2021/07/11 00:09:39;;;;;;;0.70;0.70;;;13.50;99.90;;;;;;2049027;29;20204;-71
2021/07/11 00:10:40;;;;;;;0.90;0.60;;;13.50;99.90;;;;;;2055920;28;20210;-72
2021/07/11 00:11:41;;;;;;;0.87;0.60;;;13.50;99.90;;;;;;2056391;28;20190;-71
2021/07/11 00:12:46;;;;;;;0.77;0.77;;;13.50;99.90;;;;;;2056266;28;20697;-72
2021/07/11 00:13:46;;;;;;;0.60;0.60;;;13.50;99.90;;;;;;2055860;28;20164;-71
2021/07/11 00:14:47;;;;;;;0.30;0.30;;;13.60;99.90;;;;;;2048338;29;20207;-71
2021/07/11 00:15:48;;;;;;;0.53;0.40;;;13.50;99.90;;;;;;2048918;29;20180;-73
2021/07/11 00:16:49;;;;;;;0.77;0.77;;;13.50;99.90;;;;;;2048824;28;20180;-71
2021/07/11 00:17:52;;;;;;;0.50;0.50;;;13.50;99.90;;;;;;2049164;29;20176;-71
2021/07/11 00:18:53;;;;;;;0.30;0.30;;;13.50;99.90;;;;;;2048316;29;20176;-72
2021/07/11 00:19:55;;;;;;;0.45;0.45;;;13.50;99.90;;;;;;2056338;28;20191;-72
2021/07/11 00:20:56;;;;;;;0.70;0.68;;;13.50;99.90;;;;;;2055798;28;20213;-72
2021/07/11 00:21:57;;;;;;;0.50;0.50;;;13.50;99.90;;;;;;2048958;29;20553;-71
2021/07/11 00:22:57;;;;;;;0.60;0.60;;;13.50;99.90;;;;;;2048979;29;20233;-72
2021/07/11 00:23:58;;;;;;;0.57;0.57;;;13.50;99.90;;;;;;2048987;28;20192;-72
2021/07/11 00:24:59;;;;;;;1.37;0.50;;;13.50;99.90;;;;;;2048307;28;20187;-71
2021/07/11 00:25:59;;;;;;;0.50;0.50;;;13.50;99.90;;;;;;2048301;28;20188;-71
2021/07/11 00:27:00;;;;;;;0.27;0.27;;;13.60;99.90;;;;;;2048231;29;20187;-71
2021/07/11 00:28:01;;;;;;;0.53;0.53;;;13.60;99.90;;;;;;2048977;29;20187;-71
2021/07/11 00:29:02;;;;;;;1.00;0.97;;;13.60;99.90;;;;;;2056396;28;20226;-71
2021/07/11 00:30:04;;;;;;;0.30;0.30;;;13.60;99.90;;;;;;2056226;28;20650;-71
2021/07/11 00:31:05;;;;;;;0.88;0.88;;;13.70;99.90;;;;;;2056304;28;20207;-71
2021/07/11 00:32:06;;;;;;;0.50;0.50;;;13.80;99.90;;;;;;2056320;28;20531;-73
2021/07/11 00:33:07;;;;;;;0.70;0.70;;;13.80;99.90;;;;;;2056400;28;20670;-71
2021/07/11 00:34:09;;;;;;;0.57;0.50;;;13.90;99.90;;;;;;2056246;28;20514;-71
2021/07/11 00:35:11;;;;;;;0.98;0.93;;;13.90;99.90;;;;;;2048833;28;20186;-72
2021/07/11 00:36:12;;;;;;;0.57;0.57;;;13.90;99.90;;;;;;2048871;29;20638;-71
2021/07/11 00:37:12;;;;;;;1.33;0.47;;;14.00;99.90;;;;;;2049037;29;20204;-72
2021/07/11 00:38:13;;;;;;;0.40;0.40;;;13.90;99.90;;;;;;2056230;28;20677;-71
2021/07/11 00:39:14;;;;;;;0.40;0.40;;;14.00;99.90;;;;;;2056226;28;20672;-71
2021/07/11 00:40:16;;;;;;;1.03;0.70;;;14.00;99.90;;;;;;2048159;29;20199;-72
2021/07/11 00:41:17;;;;;;;0.35;0.35;;;14.00;99.90;;;;;;2056176;28;20207;-72
2021/07/11 00:42:18;;;;;;;0.47;0.47;;;13.90;99.90;;;;;;2056198;28;20197;-71
2021/07/11 00:43:18;;;;;;;3.10;0.73;;;13.90;99.90;;;;;;2048992;29;20246;-72
2021/07/11 00:44:19;;;;;;;0.97;0.97;;;13.90;99.90;;;;;;2050905;28;20215;-71
2021/07/11 00:45:20;;;;;;;0.60;0.60;;;13.90;99.90;;;;;;2058771;28;20558;-72
2021/07/11 00:46:21;;;;;;;0.70;0.70;;;13.90;99.90;;;;;;2056152;28;20536;-72
2021/07/11 00:47:22;;;;;;;0.50;0.50;;;13.80;99.90;;;;;;2056273;28;20187;-71
2021/07/11 00:48:23;;;;;;;0.60;0.60;;;13.80;99.90;;;;;;2056626;28;20187;-72
2021/07/11 00:49:24;;;;;;;0.60;0.60;;;13.80;99.90;;;;;;2056145;28;20936;-71
2021/07/11 00:50:24;;;;;;;0.50;0.50;;;13.80;99.90;;;;;;2056015;28;20190;-72
2021/07/11 00:51:25;;;;;;;0.83;0.50;;;13.80;99.90;;;;;;2056909;28;20179;-71
2021/07/11 00:52:26;;;;;;;1.13;0.93;;;13.80;99.90;;;;;;2056815;28;20274;-71
2021/07/11 00:53:26;;;;;;;0.67;0.50;;;13.80;99.90;;;;;;2056713;28;20614;-72
2021/07/11 00:54:27;;;;;;;0.77;0.77;;;13.80;99.90;;;;;;2056809;28;20175;-71
2021/07/11 00:55:28;;;;;;;1.00;0.70;;;13.80;99.90;;;;;;2056898;28;20405;-71
2021/07/11 00:56:29;;;;;;;0.70;0.70;;;13.80;99.90;;;;;;2056176;28;20576;-72
2021/07/11 00:57:30;;;;;;;0.97;0.97;;;13.80;99.90;;;;;;2056154;28;20269;-71
2021/07/11 00:58:30;;;;;;;0.77;0.70;;;13.80;99.90;;;;;;2056595;28;20175;-72
2021/07/11 00:59:32;;;;;;;0.60;0.60;;;13.90;99.90;;;;;;2056754;28;20226;-71
2021/07/11 01:00:34;;;;;;;0.40;0.40;;;13.90;99.90;;;;;;2056307;28;20175;-72
2021/07/11 01:01:41;;;;;;;0.55;0.55;;;13.90;99.90;;;;;;2048077;29;20176;-73
2021/07/11 01:03:00;;;;;;;0.57;0.57;;;13.90;99.90;;;;;;2049122;28;20235;-73
2021/07/11 01:04:05;;;;;;;0.40;0.40;;;13.90;99.90;;;;;;2048085;29;20160;-72
2021/07/11 01:05:10;;;;;;;0.65;0.65;;;13.80;99.90;;;;;;2048228;29;20183;-71
2021/07/11 01:06:14;;;;;;;0.63;0.38;;;13.80;99.90;;;;;;2049080;28;20206;-72
2021/07/11 01:07:24;;;;;;;0.40;0.40;;;13.80;99.90;;;;;;2056077;28;20592;-71
2021/07/11 01:08:58;;;;;;;0.40;0.40;;;13.80;99.90;;;;;;2048251;29;20263;-71
2021/07/11 01:10:08;;;;;;;0.90;0.90;;;13.80;99.90;;;;;;2047930;29;20242;-72
2021/07/11 01:11:11;;;;;;;0.38;0.38;;;13.80;99.90;;;;;;2057050;28;20272;-72
2021/07/11 01:12:25;;;;;;;0.43;0.43;;;13.80;99.90;;;;;;2055470;28;20187;-71
2021/07/11 01:13:28;;;;;;;0.93;0.80;;;13.70;99.90;;;;;;2049855;28;20186;-71
2021/07/11 01:14:30;;;;;;;0.70;0.70;;;13.70;99.90;;;;;;2047846;28;20220;-72
2021/07/11 01:15:32;;;;;;;0.52;0.52;;;13.60;99.90;;;;;;2040216;29;20231;-72
2021/07/11 01:16:35;;;;;;;0.60;0.60;;;13.60;99.90;;;;;;2048251;28;20210;-71
2021/07/11 01:17:36;;;;;;;0.40;0.40;;;13.70;99.90;;;;;;2056658;28;20539;-71
2021/07/11 01:18:39;;;;;;;0.57;0.57;;;13.80;99.90;;;;;;2056745;28;20191;-72
2021/07/11 01:19:49;;;;;;;0.75;0.75;;;13.80;99.90;;;;;;2056618;28;20208;-72
2021/07/11 01:20:55;;;;;;;0.60;0.60;;;13.90;99.90;;;;;;2056430;28;20202;-72
2021/07/11 01:22:03;;;;;;;0.70;0.40;;;13.90;99.90;;;;;;2056634;28;20182;-71
2021/07/11 01:23:09;;;;;;;0.60;0.60;;;13.90;99.90;;;;;;2048312;28;20172;-72
2021/07/11 01:24:31;;;;;;;0.95;0.90;;;13.90;99.90;;;;;;2048790;28;20232;-72
2021/07/11 01:25:42;;;;;;;0.40;0.40;;;13.80;99.90;;;;;;2047881;29;20174;-71
2021/07/11 01:26:47;;;;;;;0.65;0.60;;;13.80;99.90;;;;;;2049538;28;20168;-71
2021/07/11 01:27:48;;;;;;;2.20;0.70;;;13.80;99.90;;;;;;2056643;28;20179;-71
2021/07/11 01:28:51;;;;;;;0.90;0.90;;;13.80;99.90;;;;;;2055878;28;20732;-72
2021/07/11 01:29:53;;;;;;;0.40;0.40;;;13.80;99.90;;;;;;2055976;28;20590;-71
2021/07/11 01:30:55;;;;;;;0.70;0.70;;;13.80;99.90;;;;;;2055596;28;20221;-71
2021/07/11 01:31:57;;;;;;;0.32;0.32;;;13.80;99.90;;;;;;2047849;29;20198;-71
2021/07/11 01:32:59;;;;;;;0.47;0.47;;;13.90;99.90;;;;;;2048050;28;20282;-73
2021/07/11 01:34:00;;;;;;;1.42;0.63;;;13.90;99.90;;;;;;2047883;29;20582;-71
2021/07/11 01:35:04;;;;;;;0.47;0.47;;;13.90;99.90;;;;;;2047945;29;20203;-71
2021/07/11 01:36:07;;;;;;;0.68;0.45;;;13.90;99.90;;;;;;2056157;28;20753;-71
2021/07/11 01:37:08;;;;;;;0.68;0.68;;;14.00;99.90;;;;;;2055568;28;20183;-71
2021/07/11 01:38:10;;;;;;;0.75;0.75;;;13.90;99.90;;;;;;2056017;28;20198;-72
2021/07/11 01:39:11;;;;;;;0.68;0.68;;;14.00;99.90;;;;;;2055831;28;20186;-71
2021/07/11 01:40:12;;;;;;;0.52;0.52;;;14.00;99.90;;;;;;2047621;29;20182;-72
2021/07/11 01:41:14;;;;;;;0.77;0.77;;;14.00;99.90;;;;;;2055767;28;20249;-71
2021/07/11 01:42:16;;;;;;;1.02;0.75;;;14.00;99.90;;;;;;2055630;28;20748;-71
2021/07/11 01:43:21;;;;;;;1.08;1.02;;;13.90;99.90;;;;;;2056063;28;20266;-72
2021/07/11 01:44:26;;;;;;;0.90;0.80;;;13.90;99.90;;;;;;2055201;28;20189;-71
2021/07/11 01:45:29;;;;;;;0.70;0.70;;;13.90;99.90;;;;;;2048556;28;20176;-72
2021/07/11 01:46:30;;;;;;;0.43;0.43;;;13.80;99.90;;;;;;2055841;28;20191;-71
2021/07/11 01:47:31;;;;;;;0.47;0.47;;;13.80;99.90;;;;;;2055887;28;20184;-72
2021/07/11 01:48:34;;;;;;;1.00;0.73;;;13.80;99.90;;;;;;2047843;29;20184;-71
2021/07/11 01:49:35;;;;;;;0.47;0.47;;;13.80;99.90;;;;;;2047948;28;20180;-71
2021/07/11 01:50:36;;;;;;;0.60;0.60;;;13.80;99.90;;;;;;2055691;28;20179;-71
2021/07/11 01:51:37;;;;;;;0.33;0.33;;;13.80;99.90;;;;;;2055911;28;20175;-71
2021/07/11 01:52:40;;;;;;;0.43;0.43;;;13.80;99.90;;;;;;2047803;28;20184;-71
2021/07/11 01:53:44;;;;;;;0.82;0.77;;;13.80;99.90;;;;;;2047876;29;20183;-72
2021/07/11 01:54:45;;;;;;;0.52;0.52;;;13.80;99.90;;;;;;2048306;28;20180;-71
2021/07/11 01:55:47;;;;;;;0.50;0.50;;;13.80;99.90;;;;;;2055786;28;20649;-71
2021/07/11 01:56:48;;;;;;;0.43;0.43;;;13.80;99.90;;;;;;2047772;29;20877;-71
2021/07/11 01:57:49;;;;;;;0.47;0.47;;;13.80;99.90;;;;;;2047712;29;20683;-72
2021/07/11 01:58:50;;;;;;;0.70;0.70;;;13.80;99.90;;;;;;2055651;28;20190;-71
2021/07/11 01:59:51;;;;;;;0.60;0.60;;;13.90;99.90;;;;;;2056481;28;20210;-71
2021/07/11 02:00:54;;;;;;;0.50;0.50;;;13.90;99.90;;;;;;2056127;28;20286;-71
2021/07/11 02:01:55;;;;;;;0.57;0.57;;;13.90;99.90;;;;;;2056502;28;20182;-72
2021/07/11 02:02:56;;;;;;;0.40;0.40;;;13.90;99.90;;;;;;2054683;28;20207;-72
2021/07/11 02:03:57;;;;;;;0.40;0.40;;;14.00;99.90;;;;;;2063626;28;20186;-71
2021/07/11 02:04:57;;;;;;;0.50;0.50;;;13.90;99.90;;;;;;2063607;28;20217;-71
2021/07/11 02:05:58;;;;;;;0.50;0.50;;;14.00;99.90;;;;;;2056280;28;20183;-71
2021/07/11 02:06:59;;;;;;;0.57;0.57;;;13.90;99.90;;;;;;2056241;28;20183;-73
2021/07/11 02:07:59;;;;;;;0.40;0.40;;;13.90;99.90;;;;;;2056203;28;20203;-71
2021/07/11 02:09:01;;;;;;;0.70;0.70;;;13.90;99.90;;;;;;2056183;28;20672;-71
2021/07/11 02:10:09;;;;;;;0.95;0.95;;;13.90;99.90;;;;;;2063568;28;20234;-71
2021/07/11 02:11:14;;;;;;;0.45;0.45;;;13.90;99.90;;;;;;2055534;28;20215;-71
2021/07/11 02:12:15;;;;;;;0.80;0.65;;;13.90;99.90;;;;;;2056446;28;20432;-71
2021/07/11 02:14:04;;;;;;;0.38;0.38;;;13.90;99.90;;;;;;2055605;28;20262;-71
2021/07/11 02:15:06;;;;;;;0.28;0.28;;;13.90;99.90;;;;;;2048480;28;20617;-74
2021/07/11 02:16:14;;;;;;;0.45;0.45;;;14.00;99.90;;;;;;2047978;28;20202;-74
2021/07/11 02:17:19;;;;;;;0.35;0.35;;;14.00;99.90;;;;;;2055729;28;20673;-71
2021/07/11 02:18:26;;;;;;;0.40;0.40;;;14.10;99.90;;;;;;2056484;28;20263;-72
2021/07/11 02:19:29;;;;;;;1.17;0.43;;;14.10;99.90;;;;;;2062826;28;20573;-72
2021/07/11 02:20:31;;;;;;;2.22;0.45;;;14.10;99.90;;;;;;2063627;28;20262;-71
2021/07/11 02:21:32;;;;;;;0.35;0.35;;;14.10;99.90;;;;;;2063762;28;20191;-72
2021/07/11 02:22:35;;;;;;;0.70;0.70;;;14.10;99.90;;;;;;2056293;28;20183;-71
2021/07/11 02:23:37;;;;;;;0.65;0.65;;;14.10;99.90;;;;;;2063827;28;20252;-71
2021/07/11 02:24:41;;;;;;;0.77;0.77;;;14.10;99.90;;;;;;2057060;28;20685;-71
2021/07/11 02:25:46;;;;;;;0.57;0.57;;;14.00;99.90;;;;;;2057592;28;20661;-71
2021/07/11 02:26:47;;;;;;;0.40;0.40;;;14.00;99.90;;;;;;2057561;28;20183;-72
2021/07/11 02:27:50;;;;;;;0.60;0.60;;;14.10;99.90;;;;;;2057397;28;20205;-71
2021/07/11 02:28:52;;;;;;;0.50;0.50;;;14.10;99.90;;;;;;2056925;28;20210;-71
2021/07/11 02:29:56;;;;;;;1.77;0.40;;;14.00;99.90;;;;;;2057023;28;20183;-71
2021/07/11 02:31:00;;;;;;;0.60;0.60;;;14.00;99.90;;;;;;2064955;28;20252;-71
2021/07/11 02:32:04;;;;;;;0.80;0.80;;;13.90;99.90;;;;;;2057055;28;20637;-71
2021/07/11 02:33:11;;;;;;;0.77;0.77;;;13.90;99.90;;;;;;2057614;28;20214;-71
2021/07/11 02:34:14;;;;;;;0.88;0.88;;;13.90;99.90;;;;;;2057039;28;20175;-72
2021/07/11 02:35:17;;;;;;;0.55;0.50;;;13.90;99.90;;;;;;2057961;28;20712;-71
2021/07/11 02:36:22;;;;;;;0.50;0.50;;;13.90;99.90;;;;;;2064651;28;20691;-73
2021/07/11 02:37:24;;;;;;;0.40;0.40;;;13.80;99.90;;;;;;2064994;28;20221;-71
2021/07/11 02:38:30;;;;;;;0.40;0.40;;;13.80;99.90;;;;;;2064985;28;20601;-71
2021/07/11 02:39:31;;;;;;;0.68;0.68;;;13.80;99.90;;;;;;2057151;28;20171;-71
2021/07/11 02:40:34;;;;;;;0.73;0.73;;;13.70;99.90;;;;;;2056798;28;20215;-72
2021/07/11 02:41:42;;;;;;;0.60;0.50;;;13.70;99.90;;;;;;2057051;28;20179;-71
2021/07/11 02:42:45;;;;;;;0.80;0.80;;;13.60;99.90;;;;;;2058060;28;20160;-71
2021/07/11 02:43:50;;;;;;;0.30;0.30;;;13.60;99.90;;;;;;2056965;28;20187;-73
2021/07/11 02:44:54;;;;;;;0.50;0.50;;;13.60;99.90;;;;;;2057715;28;20183;-71
2021/07/11 02:45:56;;;;;;;0.85;0.85;;;13.50;99.90;;;;;;2056931;28;20183;-71
2021/07/11 02:47:01;;;;;;;0.50;0.50;;;13.50;99.90;;;;;;2057392;28;20175;-71
2021/07/11 02:48:05;;;;;;;0.77;0.77;;;13.40;99.90;;;;;;2057167;28;20163;-73
2021/07/11 02:49:11;;;;;;;0.38;0.38;;;13.40;99.90;;;;;;2057155;28;20198;-71
2021/07/11 02:50:16;;;;;;;0.45;0.45;;;13.40;99.90;;;;;;2057006;28;20171;-71
2021/07/11 02:51:22;;;;;;;0.60;0.60;;;13.30;99.90;;;;;;2064594;28;20731;-70
2021/07/11 02:52:24;;;;;;;0.40;0.40;;;13.30;99.90;;;;;;2066716;28;20206;-71
2021/07/11 02:53:28;;;;;;;1.30;0.73;;;13.20;99.90;;;;;;2056909;28;20183;-70
2021/07/11 02:54:55;;;;;;;0.40;0.40;;;13.20;99.90;;;;;;2049502;28;20187;-72
2021/07/11 02:55:58;;;;;;;0.40;0.40;;;13.20;99.90;;;;;;2057205;28;20290;-72
2021/07/11 02:57:03;;;;;;;1.08;0.90;;;13.10;99.90;;;;;;2048864;29;20541;-72
2021/07/11 02:58:12;;;;;;;0.82;0.75;;;13.10;99.90;;;;;;2048774;28;20560;-71
2021/07/11 02:59:15;;;;;;;0.60;0.60;;;13.10;99.90;;;;;;2048776;28;20191;-70
2021/07/11 03:00:16;;;;;;;0.47;0.47;;;13.10;99.90;;;;;;2039273;29;20271;-72
2021/07/11 03:01:18;;;;;;;0.30;0.30;;;13.10;99.90;;;;;;2056681;28;20199;-73
2021/07/11 03:02:19;;;;;;;0.43;0.43;;;13.00;99.90;;;;;;2064389;28;20230;-71
2021/07/11 03:03:21;;;;;;;0.57;0.57;;;13.00;99.90;;;;;;2064819;28;20545;-71
2021/07/11 03:04:23;;;;;;;1.58;0.90;;;13.00;99.90;;;;;;2064708;28;20196;-71
2021/07/11 03:05:25;;;;;;;0.60;0.60;;;13.00;99.90;;;;;;2064934;28;20190;-70
2021/07/11 03:06:25;;;;;;;0.40;0.40;;;12.90;99.90;;;;;;2064969;28;20221;-71
2021/07/11 03:07:27;;;;;;;0.67;0.63;;;12.90;99.90;;;;;;2056879;28;20190;-71
2021/07/11 03:08:28;;;;;;;0.68;0.68;;;12.90;99.90;;;;;;2064863;28;20210;-73
2021/07/11 03:09:28;;;;;;;0.63;0.63;;;12.90;99.90;;;;;;2065013;28;20183;-71
2021/07/11 03:10:29;;;;;;;0.40;0.40;;;12.90;99.90;;;;;;2057045;28;20551;-71
2021/07/11 03:11:32;;;;;;;0.50;0.50;;;12.90;99.90;;;;;;2057483;28;20214;-71
2021/07/11 03:12:35;;;;;;;0.75;0.75;;;12.90;99.90;;;;;;2064765;28;20171;-71
2021/07/11 03:13:36;;;;;;;0.63;0.63;;;12.90;99.90;;;;;;2064562;28;20186;-71
2021/07/11 03:14:38;;;;;;;1.03;0.93;;;12.90;99.90;;;;;;2064945;28;20265;-71
2021/07/11 03:15:39;;;;;;;0.50;0.50;;;12.90;99.90;;;;;;2064688;28;20418;-71
2021/07/11 03:16:53;;;;;;;0.67;0.67;;;12.90;99.90;;;;;;2056754;28;20555;-72
2021/07/11 03:17:56;;;;;;;0.52;0.52;;;12.90;99.90;;;;;;2048753;29;20566;-71
2021/07/11 03:18:58;;;;;;;0.30;0.30;;;12.90;99.90;;;;;;2048779;29;20231;-71
2021/07/11 03:20:00;;;;;;;0.50;0.50;;;12.90;99.90;;;;;;2056773;28;20274;-72
2021/07/11 03:21:03;;;;;;;2.75;1.05;;;12.90;99.90;;;;;;2064504;28;20677;-71
2021/07/11 03:22:05;;;;;;;1.27;1.20;;;13.00;99.90;;;;;;2048661;28;20239;-72
2021/07/11 03:23:06;;;;;;;0.40;0.40;;;13.00;99.90;;;;;;2040747;29;20189;-72
2021/07/11 03:24:08;;;;;;;1.30;0.50;;;13.10;99.90;;;;;;2048756;28;20188;-71
2021/07/11 03:25:11;;;;;;;0.43;0.43;;;13.10;99.90;;;;;;2056610;28;20186;-71
2021/07/11 03:26:12;;;;;;;0.52;0.52;;;13.10;99.90;;;;;;2064382;28;20187;-72
2021/07/11 03:27:13;;;;;;;0.40;0.40;;;13.10;99.90;;;;;;2064702;28;20631;-71
2021/07/11 03:28:14;;;;;;;0.55;0.55;;;13.10;99.90;;;;;;2064629;28;20186;-72
2021/07/11 03:29:52;;;;;;;1.00;1.00;;;13.20;99.90;;;;;;2064535;28;20198;-72
2021/07/11 03:30:53;;;;;;;0.32;0.32;;;13.20;99.90;;;;;;2059351;28;20282;-71
2021/07/11 03:31:57;;;;;;;0.47;0.40;;;13.20;99.90;;;;;;2064592;28;20185;-72
2021/07/11 03:33:02;;;;;;;0.38;0.30;;;13.30;99.90;;;;;;2064299;28;20170;-71
2021/07/11 03:34:03;;;;;;;0.40;0.40;;;13.30;99.90;;;;;;2064520;28;20599;-71
2021/07/11 03:35:06;;;;;;;1.03;1.00;;;13.30;99.90;;;;;;2064152;28;20229;-73
2021/07/11 03:36:11;;;;;;;1.02;1.02;;;13.40;99.90;;;;;;2064458;28;20198;-72
2021/07/11 03:37:13;;;;;;;0.50;0.50;;;13.30;99.90;;;;;;2064162;28;20174;-73
2021/07/11 03:38:21;;;;;;;1.65;0.88;;;13.30;99.90;;;;;;2056643;28;20190;-71
2021/07/11 03:39:25;;;;;;;4.30;0.80;;;13.30;99.90;;;;;;2056365;28;20608;-72
2021/07/11 03:40:30;;;;;;;0.45;0.45;;;13.30;99.90;;;;;;2048277;29;20183;-72
2021/07/11 03:41:33;;;;;;;0.60;0.60;;;13.20;99.90;;;;;;2056975;28;20178;-72
2021/07/11 03:42:40;;;;;;;0.80;0.80;;;13.20;99.90;;;;;;2064093;28;20640;-73
2021/07/11 03:43:45;;;;;;;1.83;1.23;;;13.20;99.90;;;;;;2064545;28;20185;-71
2021/07/11 03:44:55;;;;;;;0.60;0.60;;;13.20;99.90;;;;;;2063925;28;20608;-71
2021/07/11 03:46:00;;;;;;;1.08;1.00;;;13.20;99.90;;;;;;2048569;29;20238;-74
2021/07/11 03:47:04;;;;;;;0.75;0.70;;;13.20;99.90;;;;;;2049252;28;20184;-71
2021/07/11 03:48:12;;;;;;;1.30;1.17;;;13.30;99.90;;;;;;2056781;28;20542;-71
2021/07/11 03:49:15;;;;;;;0.43;0.43;;;13.30;99.90;;;;;;2048736;29;20211;-71
2021/07/11 03:50:21;;;;;;;0.68;0.63;;;13.30;99.90;;;;;;2048764;28;20280;-71
2021/07/11 03:51:26;;;;;;;0.50;0.50;;;13.30;99.90;;;;;;2048911;29;20184;-71
2021/07/11 03:52:30;;;;;;;1.00;0.70;;;13.30;99.90;;;;;;2057153;28;20616;-71
2021/07/11 03:53:34;;;;;;;0.77;0.77;;;13.30;99.90;;;;;;2064308;28;20186;-72
2021/07/11 03:54:38;;;;;;;0.63;0.50;;;13.30;99.90;;;;;;2064567;28;20261;-72
2021/07/11 03:55:40;;;;;;;0.38;0.38;;;13.30;99.90;;;;;;2063989;28;20583;-71
2021/07/11 03:56:44;;;;;;;0.65;0.60;;;13.30;99.90;;;;;;2064363;28;20625;-72
2021/07/11 03:57:47;;;;;;;0.93;0.93;;;13.30;99.90;;;;;;2063926;28;20167;-71
2021/07/11 03:58:48;;;;;;;0.57;0.57;;;13.30;99.90;;;;;;2064338;28;20178;-73
2021/07/11 03:59:50;;;;;;;0.80;0.80;;;13.30;99.90;;;;;;2064382;28;20181;-71
2021/07/11 04:00:52;;;;;;;1.17;0.95;;;13.30;99.90;;;;;;2063882;28;20584;-71
2021/07/11 04:01:53;;;;;;;1.23;0.65;;;13.30;99.90;;;;;;2064202;28;20665;-72
2021/07/11 04:02:55;;;;;;;0.80;0.80;;;13.30;99.90;;;;;;2064392;28;20469;-71
2021/07/11 04:03:58;;;;;;;0.60;0.60;;;13.20;99.90;;;;;;2064212;28;20204;-72
2021/07/11 04:05:02;;;;;;;0.68;0.68;;;13.20;99.90;;;;;;2056955;28;20191;-71
2021/07/11 04:06:08;;;;;;;0.52;0.52;;;13.20;99.90;;;;;;2064211;28;20232;-72
2021/07/11 04:07:11;;;;;;;0.40;0.40;;;13.20;99.90;;;;;;2063738;28;20189;-71
2021/07/11 04:08:19;;;;;;;0.68;0.68;;;13.20;99.90;;;;;;2056295;28;20186;-71
2021/07/11 04:09:22;;;;;;;0.40;0.40;;;13.20;99.90;;;;;;2064309;28;20206;-71
2021/07/11 04:10:28;;;;;;;0.65;0.65;;;13.30;99.90;;;;;;2063574;28;20610;-72
2021/07/11 04:11:32;;;;;;;0.85;0.85;;;13.30;99.90;;;;;;2064254;28;20179;-71
2021/07/11 04:12:33;;;;;;;0.40;0.40;;;13.20;99.90;;;;;;2063817;28;20237;-71
2021/07/11 04:13:34;;;;;;;0.63;0.63;;;13.20;99.90;;;;;;2064201;28;20171;-71
2021/07/11 04:14:35;;;;;;;0.63;0.63;;;13.20;99.90;;;;;;2064195;28;20642;-72
2021/07/11 04:15:36;;;;;;;0.60;0.60;;;13.20;99.90;;;;;;2056833;28;20187;-71
2021/07/11 04:16:38;;;;;;;0.40;0.40;;;13.20;99.90;;;;;;2056685;28;20179;-72
2021/07/11 04:17:39;;;;;;;0.70;0.70;;;13.30;99.90;;;;;;2056159;28;20179;-73
2021/07/11 04:18:45;;;;;;;0.77;0.77;;;13.30;99.90;;;;;;2064126;28;20189;-71
2021/07/11 04:19:47;;;;;;;0.60;0.60;;;13.30;99.90;;;;;;2063568;28;20162;-71
2021/07/11 04:20:55;;;;;;;0.68;0.68;;;13.30;99.90;;;;;;2063885;28;20252;-71
2021/07/11 04:21:57;;;;;;;0.60;0.60;;;13.30;99.90;;;;;;2063185;28;20250;-72
2021/07/11 04:23:01;;;;;;;0.80;0.80;;;13.30;99.90;;;;;;2064130;28;20241;-71
2021/07/11 04:24:03;;;;;;;1.02;0.90;;;13.30;99.90;;;;;;2063836;28;20181;-72
2021/07/11 04:25:05;;;;;;;0.95;0.85;;;13.30;99.90;;;;;;2064090;28;20241;-72
2021/07/11 04:26:06;;;;;;;0.80;0.80;;;13.30;99.90;;;;;;2063801;28;20639;-72
2021/07/11 04:27:08;;;;;;;0.47;0.47;;;13.40;99.90;;;;;;2056027;28;20191;-71
2021/07/11 04:28:11;;;;;;;0.50;0.50;;;13.40;99.90;;;;;;2056719;28;20419;-72
2021/07/11 04:29:13;;;;;;;0.95;0.60;;;13.40;99.90;;;;;;2056575;28;20202;-72
2021/07/11 04:30:15;;;;;;;0.73;0.73;;;13.40;99.90;;;;;;2063901;28;20179;-72
2021/07/11 04:31:18;;;;;;;0.60;0.60;;;13.40;99.90;;;;;;2063758;28;20719;-71
2021/07/11 04:32:19;;;;;;;0.70;0.70;;;13.40;99.90;;;;;;2056835;28;20546;-72
2021/07/11 04:33:20;;;;;;;0.75;0.75;;;13.30;99.90;;;;;;2063984;28;20679;-72
2021/07/11 04:34:30;;;;;;;1.13;0.73;;;13.30;99.90;;;;;;2064095;28;20174;-72
2021/07/11 04:35:31;;;;;;;0.75;0.75;;;13.30;99.90;;;;;;2048082;29;20176;-72
2021/07/11 04:36:32;;;;;;;0.77;0.77;;;13.30;99.90;;;;;;2048139;28;20176;-72
2021/07/11 04:37:34;;;;;;;0.43;0.40;;;13.30;99.90;;;;;;2056809;28;20175;-72
2021/07/11 04:38:35;;;;;;;0.70;0.70;;;13.30;99.90;;;;;;2064001;28;20637;-72
2021/07/11 04:39:36;;;;;;;1.92;0.70;;;13.40;99.90;;;;;;2055925;28;20175;-72
2021/07/11 04:40:39;;;;;;;0.63;0.60;;;13.40;99.90;;;;;;2047789;29;20303;-72
2021/07/11 04:41:41;;;;;;;0.88;0.82;;;13.40;99.90;;;;;;2064020;28;20198;-71
2021/07/11 04:42:44;;;;;;;2.00;0.85;;;13.40;99.90;;;;;;2063783;28;20186;-72
2021/07/11 04:43:45;;;;;;;0.80;0.80;;;13.50;99.90;;;;;;2064100;28;20495;-71
2021/07/11 04:44:45;;;;;;;1.47;0.60;;;13.50;99.90;;;;;;2063918;28;20170;-72
2021/07/11 04:45:47;;;;;;;0.60;0.60;;;13.50;99.90;;;;;;2064946;28;20166;-71
2021/07/11 04:46:47;;;;;;;0.98;0.98;;;13.50;99.90;;;;;;2064673;28;20600;-71
2021/07/11 04:47:48;;;;;;;0.60;0.60;;;13.50;99.90;;;;;;2047924;29;20191;-72
2021/07/11 04:48:49;;;;;;;1.53;0.67;;;13.50;99.90;;;;;;2047809;28;20717;-72
2021/07/11 04:49:49;;;;;;;0.90;0.77;;;13.60;99.90;;;;;;2055896;28;20553;-72
2021/07/11 04:50:50;;;;;;;1.17;1.07;;;13.70;99.90;;;;;;2047626;28;20200;-72
2021/07/11 04:51:53;;;;;;;1.23;1.03;;;13.70;99.90;;;;;;2056557;28;20190;-72
2021/07/11 04:52:54;;;;;;;0.60;0.60;;;13.70;99.90;;;;;;2055782;28;20666;-73
2021/07/11 04:53:54;;;;;;;0.63;0.57;;;13.70;99.90;;;;;;2047878;29;20271;-72
2021/07/11 04:54:55;;;;;;;0.97;0.97;;;13.70;99.90;;;;;;2047865;29;20175;-72
2021/07/11 04:55:56;;;;;;;1.00;0.90;;;13.80;99.90;;;;;;2054814;28;20250;-72
2021/07/11 04:56:57;;;;;;;0.55;0.55;;;13.80;99.90;;;;;;2054938;28;20250;-72
2021/07/11 04:57:57;;;;;;;0.60;0.60;;;13.80;99.90;;;;;;2047793;29;20187;-72
2021/07/11 04:58:58;;;;;;;3.23;0.93;;;13.80;99.90;;;;;;2056131;28;20281;-72
2021/07/11 04:59:59;;;;;;;0.68;0.68;;;13.90;99.90;;;;;;2056104;28;20649;-71
2021/07/11 05:01:00;;;;;;;0.70;0.70;;;13.90;99.90;;;;;;2055749;28;20211;-71
2021/07/11 05:02:00;;;;;;;0.50;0.50;;;13.80;99.90;;;;;;2056311;28;20273;-71
2021/07/11 05:03:01;;;;;;;0.53;0.53;;;13.80;99.90;;;;;;2056245;28;20178;-72
2021/07/11 05:04:03;;;;;;;0.97;0.90;;;13.80;99.90;;;;;;2056657;28;20525;-71
2021/07/11 05:05:06;;;;;;;0.70;0.70;;;13.80;99.90;;;;;;2063594;28;20237;-71
2021/07/11 05:06:07;;;;;;;0.93;0.82;;;13.70;99.90;;;;;;2055443;28;20186;-72
2021/07/11 05:07:08;;;;;;;0.67;0.67;;;13.80;99.90;;;;;;2055663;28;20183;-71
2021/07/11 05:08:09;;;;;;;1.03;0.90;;;13.80;99.90;;;;;;2063896;28;20261;-73
2021/07/11 05:09:10;;;;;;;0.50;0.50;;;13.70;99.90;;;;;;2056069;28;20195;-71
2021/07/11 05:10:11;;;;;;;0.80;0.80;;;13.70;99.90;;;;;;2055732;28;20255;-72
2021/07/11 05:11:12;;;;;;;2.85;0.98;;;13.70;99.90;;;;;;2056060;28;20219;-72
2021/07/11 05:12:13;;;;;;;0.73;0.70;;;13.80;99.90;;;;;;2055887;28;20489;-71
2021/07/11 05:13:13;;;;;;;0.67;0.67;;;13.70;99.90;;;;;;2055657;28;20281;-72
2021/07/11 05:14:14;;;;;;;3.60;0.70;;;13.80;99.90;;;;;;2056423;28;20187;-72
2021/07/11 05:15:15;;;;;;;0.80;0.80;;;13.80;99.90;;;;;;2056165;28;20187;-72
2021/07/11 05:16:15;;;;;;;0.93;0.93;;;13.80;99.90;;;;;;2056462;28;20206;-72
2021/07/11 05:17:17;;;;;;;0.80;0.80;;;13.80;99.90;;;;;;2056223;28;20553;-71
2021/07/11 05:18:17;;;;;;;0.98;0.93;;;13.80;99.90;;;;;;2063777;28;20209;-72
2021/07/11 05:19:18;;;;;;;1.00;1.00;;;13.80;99.90;;;;;;2063614;28;20258;-71
2021/07/11 05:20:19;;;;;;;0.70;0.70;;;13.80;99.90;;;;;;2055680;28;20226;-72
2021/07/11 05:21:20;;;;;;;0.90;0.90;;;13.90;99.90;;;;;;2056091;28;20540;-71
2021/07/11 05:22:20;;;;;;;0.63;0.63;;;13.80;99.90;;;;;;2056414;28;20183;-71
2021/07/11 05:23:21;;;;;;;0.70;0.70;;;13.90;99.90;;;;;;2056331;28;20183;-72
2021/07/11 05:24:22;;;;;;;2.10;1.83;;;13.90;99.90;;;;;;2056295;28;20189;-71
2021/07/11 05:25:22;;;;;;;0.90;0.90;;;14.00;99.90;;;;;;2056211;28;20187;-71
2021/07/11 05:26:24;;;;;;;0.60;0.60;;;14.00;99.90;;;;;;2056243;28;20601;-73
2021/07/11 05:27:27;;;;;;;0.43;0.43;;;14.00;99.90;;;;;;2056307;28;20262;-72
2021/07/11 05:28:27;;;;;;;0.80;0.80;;;14.00;99.90;;;;;;2056218;28;20601;-72